sensor_id;sensor_type;location;lat;lon;timestamp;pressure;altitude;pressure_sealevel;temperature;humidity
5595;BME280;1003;48.002;7.788;2024-02-23T00:02:20;97197.97;;;6.88;100.00
5595;BME280;1003;48.002;7.788;2024-02-23T00:04:48;97206.44;;;6.84;100.00
5595;BME280;1003;48.002;7.788;2024-02-23T00:07:15;97209.13;;;6.76;100.00
5595;BME280;1003;48.002;7.788;2024-02-23T00:09:43;97214.22;;;6.73;100.00
5595;BME280;1003;48.002;7.788;2024-02-23T00:12:10;97214.31;;;6.69;100.00
5595;BME280;1003;48.002;7.788;2024-02-23T00:14:39;97216.19;;;6.61;100.00
5595;BME280;1003;48.002;7.788;2024-02-23T00:17:06;97225.31;;;6.62;100.00
5595;BME280;1003;48.002;7.788;2024-02-23T00:19:33;97233.88;;;6.53;100.00
5595;BME280;1003;48.002;7.788;2024-02-23T00:22:02;97257.06;;;6.56;100.00
5595;BME280;1003;48.002;7.788;2024-02-23T00:24:29;97233.88;;;6.53;100.00
5595;BME280;1003;48.002;7.788;2024-02-23T00:26:57;97237.94;;;6.57;100.00
5595;BME280;1003;48.002;7.788;2024-02-23T00:29:24;97246.25;;;6.56;100.00
5595;BME280;1003;48.002;7.788;2024-02-23T00:31:52;97250.38;;;6.58;100.00
5595;BME280;1003;48.002;7.788;2024-02-23T00:34:19;97248.75;;;6.56;100.00
5595;BME280;1003;48.002;7.788;2024-02-23T00:36:48;97244.72;;;6.52;100.00
5595;BME280;1003;48.002;7.788;2024-02-23T00:39:17;97245.41;;;6.57;100.00
5595;BME280;1003;48.002;7.788;2024-02-23T00:41:44;97252.09;;;6.56;100.00
5595;BME280;1003;48.002;7.788;2024-02-23T00:44:12;97253.75;;;6.56;100.00
5595;BME280;1003;48.002;7.788;2024-02-23T00:46:39;97258.78;;;6.54;100.00
5595;BME280;1003;48.002;7.788;2024-02-23T00:49:07;97257.91;;;6.55;100.00
5595;BME280;1003;48.002;7.788;2024-02-23T00:51:34;97258.06;;;6.49;100.00
5595;BME280;1003;48.002;7.788;2024-02-23T00:54:02;97262.28;;;6.47;100.00
5595;BME280;1003;48.002;7.788;2024-02-23T00:56:33;97258.28;;;6.40;100.00
5595;BME280;1003;48.002;7.788;2024-02-23T00:59:01;97262.50;;;6.38;100.00
5595;BME280;1003;48.002;7.788;2024-02-23T01:01:29;97259.31;;;6.33;100.00
5595;BME280;1003;48.002;7.788;2024-02-23T01:03:58;97268.66;;;6.25;100.00
5595;BME280;1003;48.002;7.788;2024-02-23T01:06:25;97272.03;;;6.22;100.00
5595;BME280;1003;48.002;7.788;2024-02-23T01:08:54;97283.06;;;6.12;100.00
5595;BME280;1003;48.002;7.788;2024-02-23T01:11:22;97288.38;;;5.98;100.00
5595;BME280;1003;48.002;7.788;2024-02-23T01:13:51;97309.19;;;5.96;100.00
5595;BME280;1003;48.002;7.788;2024-02-23T01:16:18;97305.03;;;5.98;100.00
5595;BME280;1003;48.002;7.788;2024-02-23T01:18:49;97314.13;;;5.99;100.00
5595;BME280;1003;48.002;7.788;2024-02-23T01:21:17;97304.94;;;6.01;100.00
5595;BME280;1003;48.002;7.788;2024-02-23T01:23:46;97294.34;;;5.91;100.00
5595;BME280;1003;48.002;7.788;2024-02-23T01:26:17;97297.78;;;5.84;100.00
5595;BME280;1003;48.002;7.788;2024-02-23T01:28:45;97286.09;;;5.86;100.00
5595;BME280;1003;48.002;7.788;2024-02-23T01:31:18;97293.59;;;5.86;100.00
5595;BME280;1003;48.002;7.788;2024-02-23T01:33:45;97295.31;;;5.84;100.00
5595;BME280;1003;48.002;7.788;2024-02-23T01:36:15;97285.56;;;5.73;100.00
5595;BME280;1003;48.002;7.788;2024-02-23T01:38:44;97277.47;;;5.64;100.00
5595;BME280;1003;48.002;7.788;2024-02-23T01:41:14;97282.34;;;5.68;100.00
5595;BME280;1003;48.002;7.788;2024-02-23T01:43:42;97279.91;;;5.67;100.00
5595;BME280;1003;48.002;7.788;2024-02-23T01:46:17;97278.41;;;5.60;100.00
5595;BME280;1003;48.002;7.788;2024-02-23T01:48:45;97279.31;;;5.56;100.00
5595;BME280;1003;48.002;7.788;2024-02-23T01:51:13;97272.56;;;5.59;100.00
5595;BME280;1003;48.002;7.788;2024-02-23T01:53:41;97266.03;;;5.53;100.00
5595;BME280;1003;48.002;7.788;2024-02-23T01:56:11;97269.44;;;5.51;100.00
5595;BME280;1003;48.002;7.788;2024-02-23T01:58:40;97263.69;;;5.47;100.00
5595;BME280;1003;48.002;7.788;2024-02-23T02:01:07;97267.13;;;5.42;100.00
5595;BME280;1003;48.002;7.788;2024-02-23T02:03:38;97257.97;;;5.42;100.00
5595;BME280;1003;48.002;7.788;2024-02-23T02:06:06;97254.53;;;5.49;100.00
5595;BME280;1003;48.002;7.788;2024-02-23T02:08:34;97246.34;;;5.43;100.00
5595;BME280;1003;48.002;7.788;2024-02-23T02:11:02;97255.63;;;5.36;100.00
5595;BME280;1003;48.002;7.788;2024-02-23T02:13:30;97264.56;;;5.45;100.00
5595;BME280;1003;48.002;7.788;2024-02-23T02:16:00;97255.69;;;5.33;100.00
5595;BME280;1003;48.002;7.788;2024-02-23T02:18:27;97253.16;;;5.35;100.00
5595;BME280;1003;48.002;7.788;2024-02-23T02:20:57;97264.03;;;5.31;100.00
5595;BME280;1003;48.002;7.788;2024-02-23T02:23:25;97258.31;;;5.25;100.00
5595;BME280;1003;48.002;7.788;2024-02-23T02:25:53;97266.59;;;5.28;100.00
5595;BME280;1003;48.002;7.788;2024-02-23T02:28:20;97262.53;;;5.23;100.00
5595;BME280;1003;48.002;7.788;2024-02-23T02:30:49;97266.69;;;5.21;100.00
5595;BME280;1003;48.002;7.788;2024-02-23T02:33:16;97252.81;;;5.11;100.00
5595;BME280;1003;48.002;7.788;2024-02-23T02:35:44;97263.47;;;5.18;100.00
5595;BME280;1003;48.002;7.788;2024-02-23T02:38:12;97259.31;;;5.18;100.00
5595;BME280;1003;48.002;7.788;2024-02-23T02:40:40;97259.88;;;5.31;100.00
5595;BME280;1003;48.002;7.788;2024-02-23T02:43:08;97254.03;;;5.32;100.00
5595;BME280;1003;48.002;7.788;2024-02-23T02:45:35;97261.34;;;5.40;100.00
5595;BME280;1003;48.002;7.788;2024-02-23T02:48:03;97258.00;;;5.41;100.00
5595;BME280;1003;48.002;7.788;2024-02-23T02:50:31;97252.81;;;5.51;100.00
5595;BME280;1003;48.002;7.788;2024-02-23T02:52:59;97257.53;;;5.64;100.00
5595;BME280;1003;48.002;7.788;2024-02-23T02:55:27;97244.44;;;5.56;100.00
5595;BME280;1003;48.002;7.788;2024-02-23T02:57:55;97238.75;;;5.49;100.00
5595;BME280;1003;48.002;7.788;2024-02-23T03:00:23;97246.47;;;5.38;100.00
5595;BME280;1003;48.002;7.788;2024-02-23T03:02:50;97248.41;;;5.24;100.00
5595;BME280;1003;48.002;7.788;2024-02-23T03:05:17;97260.16;;;5.17;100.00
5595;BME280;1003;48.002;7.788;2024-02-23T03:07:44;97247.19;;;5.02;100.00
5595;BME280;1003;48.002;7.788;2024-02-23T03:10:10;97238.91;;;4.99;100.00
5595;BME280;1003;48.002;7.788;2024-02-23T03:12:39;97250.69;;;4.91;100.00
5595;BME280;1003;48.002;7.788;2024-02-23T03:15:07;97246.59;;;4.87;100.00
5595;BME280;1003;48.002;7.788;2024-02-23T03:17:36;97249.06;;;4.89;100.00
5595;BME280;1003;48.002;7.788;2024-02-23T03:20:05;97255.72;;;4.88;100.00
5595;BME280;1003;48.002;7.788;2024-02-23T03:22:34;97254.66;;;5.02;100.00
5595;BME280;1003;48.002;7.788;2024-02-23T03:25:02;97256.31;;;4.99;100.00
5595;BME280;1003;48.002;7.788;2024-02-23T03:27:36;97252.03;;;5.08;100.00
5595;BME280;1003;48.002;7.788;2024-02-23T03:30:07;97253.91;;;4.96;100.00
5595;BME280;1003;48.002;7.788;2024-02-23T03:32:35;97239.75;;;4.98;100.00
5595;BME280;1003;48.002;7.788;2024-02-23T03:35:08;97232.22;;;5.03;100.00
5595;BME280;1003;48.002;7.788;2024-02-23T03:37:36;97233.91;;;5.01;100.00
5595;BME280;1003;48.002;7.788;2024-02-23T03:40:05;97241.28;;;5.06;100.00
5595;BME280;1003;48.002;7.788;2024-02-23T03:42:33;97229.59;;;5.09;100.00
5595;BME280;1003;48.002;7.788;2024-02-23T03:45:00;97232.00;;;5.14;100.00
5595;BME280;1003;48.002;7.788;2024-02-23T03:47:29;97233.81;;;5.06;100.00
5595;BME280;1003;48.002;7.788;2024-02-23T03:49:59;97230.44;;;5.08;100.00
5595;BME280;1003;48.002;7.788;2024-02-23T03:52:29;97223.03;;;5.07;100.00
5595;BME280;1003;48.002;7.788;2024-02-23T03:54:59;97220.31;;;5.16;100.00
5595;BME280;1003;48.002;7.788;2024-02-23T03:57:26;97222.94;;;5.11;100.00
5595;BME280;1003;48.002;7.788;2024-02-23T03:59:54;97229.53;;;5.12;100.00
5595;BME280;1003;48.002;7.788;2024-02-23T04:02:21;97224.69;;;5.05;100.00
5595;BME280;1003;48.002;7.788;2024-02-23T04:04:49;97226.63;;;4.92;100.00
5595;BME280;1003;48.002;7.788;2024-02-23T04:07:16;97220.28;;;4.76;100.00
5595;BME280;1003;48.002;7.788;2024-02-23T04:09:43;97222.13;;;4.66;100.00
5595;BME280;1003;48.002;7.788;2024-02-23T04:12:10;97222.81;;;4.74;100.00
5595;BME280;1003;48.002;7.788;2024-02-23T04:14:38;97219.59;;;4.67;100.00
5595;BME280;1003;48.002;7.788;2024-02-23T04:17:06;97205.59;;;4.63;100.00
5595;BME280;1003;48.002;7.788;2024-02-23T04:19:33;97208.16;;;4.59;100.00
5595;BME280;1003;48.002;7.788;2024-02-23T04:22:01;97203.22;;;4.56;100.00
5595;BME280;1003;48.002;7.788;2024-02-23T04:24:28;97210.94;;;4.42;100.00
5595;BME280;1003;48.002;7.788;2024-02-23T04:26:55;97206.78;;;4.42;100.00
5595;BME280;1003;48.002;7.788;2024-02-23T04:29:22;97205.34;;;4.29;100.00
5595;BME280;1003;48.002;7.788;2024-02-23T04:31:49;97202.88;;;4.31;100.00
5595;BME280;1003;48.002;7.788;2024-02-23T04:34:16;97209.50;;;4.29;100.00
5595;BME280;1003;48.002;7.788;2024-02-23T04:36:43;97207.84;;;4.29;100.00
5595;BME280;1003;48.002;7.788;2024-02-23T04:39:11;97207.16;;;4.19;100.00
5595;BME280;1003;48.002;7.788;2024-02-23T04:41:38;97204.69;;;4.19;100.00
5595;BME280;1003;48.002;7.788;2024-02-23T04:44:05;97206.41;;;4.16;100.00
5595;BME280;1003;48.002;7.788;2024-02-23T04:46:32;97213.06;;;4.14;100.00
5595;BME280;1003;48.002;7.788;2024-02-23T04:49:00;97210.53;;;4.17;100.00
5595;BME280;1003;48.002;7.788;2024-02-23T04:51:27;97209.66;;;4.19;100.00
5595;BME280;1003;48.002;7.788;2024-02-23T04:53:54;97205.56;;;4.17;100.00
5595;BME280;1003;48.002;7.788;2024-02-23T04:56:22;97223.56;;;4.30;100.00
5595;BME280;1003;48.002;7.788;2024-02-23T04:58:49;97218.75;;;4.22;100.00
5595;BME280;1003;48.002;7.788;2024-02-23T05:01:16;97220.53;;;4.14;100.00
5595;BME280;1003;48.002;7.788;2024-02-23T05:03:44;97229.69;;;4.12;100.00
5595;BME280;1003;48.002;7.788;2024-02-23T05:06:10;97222.31;;;4.06;100.00
5595;BME280;1003;48.002;7.788;2024-02-23T05:08:38;97228.00;;;4.12;100.00
5595;BME280;1003;48.002;7.788;2024-02-23T05:11:06;97233.19;;;4.00;100.00
5595;BME280;1003;48.002;7.788;2024-02-23T05:13:34;97238.13;;;4.02;100.00
5595;BME280;1003;48.002;7.788;2024-02-23T05:16:04;97244.16;;;3.85;100.00
5595;BME280;1003;48.002;7.788;2024-02-23T05:18:30;97244.13;;;3.87;100.00
5595;BME280;1003;48.002;7.788;2024-02-23T05:20:57;97244.13;;;3.88;100.00
5595;BME280;1003;48.002;7.788;2024-02-23T05:23:24;97238.41;;;3.82;100.00
5595;BME280;1003;48.002;7.788;2024-02-23T05:25:51;97245.19;;;3.71;100.00
5595;BME280;1003;48.002;7.788;2024-02-23T05:28:18;97246.78;;;3.76;100.00
5595;BME280;1003;48.002;7.788;2024-02-23T05:30:46;97241.13;;;3.66;100.00
5595;BME280;1003;48.002;7.788;2024-02-23T05:33:13;97249.88;;;3.90;100.00
5595;BME280;1003;48.002;7.788;2024-02-23T05:35:40;97251.53;;;3.91;100.00
5595;BME280;1003;48.002;7.788;2024-02-23T05:38:07;97256.69;;;3.79;100.00
5595;BME280;1003;48.002;7.788;2024-02-23T05:40:34;97265.06;;;3.71;100.00
5595;BME280;1003;48.002;7.788;2024-02-23T05:43:02;97262.81;;;3.55;100.00
5595;BME280;1003;48.002;7.788;2024-02-23T05:45:28;97265.22;;;3.60;100.00
5595;BME280;1003;48.002;7.788;2024-02-23T05:47:57;97266.84;;;3.62;100.00
5595;BME280;1003;48.002;7.788;2024-02-23T05:50:24;97270.84;;;3.71;100.00
5595;BME280;1003;48.002;7.788;2024-02-23T05:52:51;97269.41;;;3.56;100.00
5595;BME280;1003;48.002;7.788;2024-02-23T05:55:19;97278.69;;;3.42;100.00
5595;BME280;1003;48.002;7.788;2024-02-23T05:57:46;97266.38;;;3.34;100.00
5595;BME280;1003;48.002;7.788;2024-02-23T06:00:14;97275.41;;;3.41;100.00
5595;BME280;1003;48.002;7.788;2024-02-23T06:02:44;97284.31;;;3.55;100.00
5595;BME280;1003;48.002;7.788;2024-02-23T06:05:13;97276.78;;;3.62;100.00
5595;BME280;1003;48.002;7.788;2024-02-23T06:07:41;97277.59;;;3.63;100.00
5595;BME280;1003;48.002;7.788;2024-02-23T06:10:08;97275.91;;;3.65;100.00
5595;BME280;1003;48.002;7.788;2024-02-23T06:12:35;97269.44;;;3.53;100.00
5595;BME280;1003;48.002;7.788;2024-02-23T06:15:05;97267.06;;;3.44;100.00
5595;BME280;1003;48.002;7.788;2024-02-23T06:17:32;97266.16;;;3.50;100.00
5595;BME280;1003;48.002;7.788;2024-02-23T06:19:59;97271.09;;;3.54;100.00
5595;BME280;1003;48.002;7.788;2024-02-23T06:22:27;97269.50;;;3.49;100.00
5595;BME280;1003;48.002;7.788;2024-02-23T06:24:54;97272.72;;;3.57;100.00
5595;BME280;1003;48.002;7.788;2024-02-23T06:27:21;97265.41;;;3.46;100.00
5595;BME280;1003;48.002;7.788;2024-02-23T06:29:48;97267.00;;;3.52;100.00
5595;BME280;1003;48.002;7.788;2024-02-23T06:32:15;97266.16;;;3.53;100.00
5595;BME280;1003;48.002;7.788;2024-02-23T06:34:42;97266.13;;;3.56;100.00
5595;BME280;1003;48.002;7.788;2024-02-23T06:37:09;97267.56;;;3.72;100.00
5595;BME280;1003;48.002;7.788;2024-02-23T06:39:38;97260.81;;;3.79;100.00
5595;BME280;1003;48.002;7.788;2024-02-23T06:42:06;97264.16;;;3.78;100.00
5595;BME280;1003;48.002;7.788;2024-02-23T06:44:37;97255.84;;;3.79;100.00
5595;BME280;1003;48.002;7.788;2024-02-23T06:47:06;97261.63;;;3.81;100.00
5595;BME280;1003;48.002;7.788;2024-02-23T06:49:33;97273.81;;;3.96;100.00
5595;BME280;1003;48.002;7.788;2024-02-23T06:52:00;97275.63;;;3.86;100.00
5595;BME280;1003;48.002;7.788;2024-02-23T06:54:27;97268.22;;;3.82;100.00
5595;BME280;1003;48.002;7.788;2024-02-23T06:56:56;97274.16;;;3.73;100.00
5595;BME280;1003;48.002;7.788;2024-02-23T06:59:24;97283.13;;;3.83;100.00
5595;BME280;1003;48.002;7.788;2024-02-23T07:01:52;97289.53;;;4.00;100.00
5595;BME280;1003;48.002;7.788;2024-02-23T07:04:20;97294.19;;;4.19;100.00
5595;BME280;1003;48.002;7.788;2024-02-23T07:06:46;97305.53;;;4.37;100.00
5595;BME280;1003;48.002;7.788;2024-02-23T07:09:13;97306.03;;;4.58;100.00
5595;BME280;1003;48.002;7.788;2024-02-23T07:11:40;97313.28;;;4.70;100.00
5595;BME280;1003;48.002;7.788;2024-02-23T07:14:10;97315.41;;;4.91;100.00
5595;BME280;1003;48.002;7.788;2024-02-23T07:16:40;97322.59;;;5.07;100.00
5595;BME280;1003;48.002;7.788;2024-02-23T07:19:07;97317.34;;;5.20;100.00
5595;BME280;1003;48.002;7.788;2024-02-23T07:21:35;97317.75;;;5.42;100.00
5595;BME280;1003;48.002;7.788;2024-02-23T07:24:02;97325.78;;;5.57;100.00
5595;BME280;1003;48.002;7.788;2024-02-23T07:26:29;97325.22;;;5.84;100.00
5595;BME280;1003;48.002;7.788;2024-02-23T07:28:56;97333.19;;;6.01;100.00
5595;BME280;1003;48.002;7.788;2024-02-23T07:31:24;97350.34;;;6.15;100.00
5595;BME280;1003;48.002;7.788;2024-02-23T07:33:51;97346.31;;;6.10;100.00
5595;BME280;1003;48.002;7.788;2024-02-23T07:36:18;97356.97;;;6.16;100.00
5595;BME280;1003;48.002;7.788;2024-02-23T07:38:45;97369.16;;;6.30;100.00
5595;BME280;1003;48.002;7.788;2024-02-23T07:41:12;97371.25;;;6.47;100.00
5595;BME280;1003;48.002;7.788;2024-02-23T07:43:39;97377.59;;;6.60;100.00
5595;BME280;1003;48.002;7.788;2024-02-23T07:46:06;97375.28;;;6.52;100.00
5595;BME280;1003;48.002;7.788;2024-02-23T07:48:36;97378.31;;;6.28;100.00
5595;BME280;1003;48.002;7.788;2024-02-23T07:51:04;97381.53;;;6.33;100.00
5595;BME280;1003;48.002;7.788;2024-02-23T07:53:31;97376.31;;;6.44;100.00
5595;BME280;1003;48.002;7.788;2024-02-23T07:55:59;97390.06;;;6.60;100.00
5595;BME280;1003;48.002;7.788;2024-02-23T07:58:28;97384.16;;;6.64;100.00
5595;BME280;1003;48.002;7.788;2024-02-23T08:00:55;97393.91;;;6.75;100.00
5595;BME280;1003;48.002;7.788;2024-02-23T08:03:22;97380.22;;;6.90;100.00
5595;BME280;1003;48.002;7.788;2024-02-23T08:05:50;97385.84;;;6.98;100.00
5595;BME280;1003;48.002;7.788;2024-02-23T08:08:17;97386.44;;;7.07;100.00
5595;BME280;1003;48.002;7.788;2024-02-23T08:10:44;97388.72;;;7.15;100.00
5595;BME280;1003;48.002;7.788;2024-02-23T08:13:15;97387.00;;;7.19;100.00
5595;BME280;1003;48.002;7.788;2024-02-23T08:15:43;97399.16;;;7.32;100.00
5595;BME280;1003;48.002;7.788;2024-02-23T08:18:10;97399.97;;;7.31;100.00
5595;BME280;1003;48.002;7.788;2024-02-23T08:20:37;97397.72;;;7.22;100.00
5595;BME280;1003;48.002;7.788;2024-02-23T08:23:05;97395.78;;;7.33;100.00
5595;BME280;1003;48.002;7.788;2024-02-23T08:25:32;97397.25;;;7.41;100.00
5595;BME280;1003;48.002;7.788;2024-02-23T08:27:59;97394.56;;;7.48;100.00
5595;BME280;1003;48.002;7.788;2024-02-23T08:30:26;97400.41;;;7.47;100.00
5595;BME280;1003;48.002;7.788;2024-02-23T08:32:53;97394.41;;;7.53;100.00
5595;BME280;1003;48.002;7.788;2024-02-23T08:35:20;97399.19;;;7.62;100.00
5595;BME280;1003;48.002;7.788;2024-02-23T08:37:47;97401.63;;;7.63;100.00
5595;BME280;1003;48.002;7.788;2024-02-23T08:40:16;97400.69;;;7.68;100.00
5595;BME280;1003;48.002;7.788;2024-02-23T08:42:43;97411.38;;;7.73;100.00
5595;BME280;1003;48.002;7.788;2024-02-23T08:45:10;97422.94;;;7.77;100.00
5595;BME280;1003;48.002;7.788;2024-02-23T08:47:38;97427.66;;;7.87;100.00
5595;BME280;1003;48.002;7.788;2024-02-23T08:50:06;97421.56;;;7.96;100.00
5595;BME280;1003;48.002;7.788;2024-02-23T08:52:33;97440.69;;;7.99;100.00
5595;BME280;1003;48.002;7.788;2024-02-23T08:55:00;97429.47;;;8.12;100.00
5595;BME280;1003;48.002;7.788;2024-02-23T08:57:28;97441.66;;;8.23;100.00
5595;BME280;1003;48.002;7.788;2024-02-23T08:59:56;97436.50;;;8.29;100.00
5595;BME280;1003;48.002;7.788;2024-02-23T09:02:23;97447.06;;;8.40;100.00
5595;BME280;1003;48.002;7.788;2024-02-23T09:04:51;97443.56;;;8.44;100.00
5595;BME280;1003;48.002;7.788;2024-02-23T09:07:18;97441.22;;;8.67;100.00
5595;BME280;1003;48.002;7.788;2024-02-23T09:09:46;97440.44;;;8.92;100.00
5595;BME280;1003;48.002;7.788;2024-02-23T09:12:14;97446.94;;;9.24;100.00
5595;BME280;1003;48.002;7.788;2024-02-23T09:14:43;97435.50;;;9.42;100.00
5595;BME280;1003;48.002;7.788;2024-02-23T09:17:10;97432.94;;;9.43;100.00
5595;BME280;1003;48.002;7.788;2024-02-23T09:19:38;97427.41;;;9.59;100.00
5595;BME280;1003;48.002;7.788;2024-02-23T09:22:05;97437.88;;;9.45;100.00
5595;BME280;1003;48.002;7.788;2024-02-23T09:24:32;97437.44;;;9.34;100.00
5595;BME280;1003;48.002;7.788;2024-02-23T09:26:59;97443.81;;;9.17;100.00
5595;BME280;1003;48.002;7.788;2024-02-23T09:29:27;97429.88;;;9.09;100.00
5595;BME280;1003;48.002;7.788;2024-02-23T09:31:55;97431.53;;;9.10;100.00
5595;BME280;1003;48.002;7.788;2024-02-23T09:34:22;97428.38;;;9.03;100.00
5595;BME280;1003;48.002;7.788;2024-02-23T09:36:49;97431.63;;;9.07;100.00
5595;BME280;1003;48.002;7.788;2024-02-23T09:39:16;97445.09;;;9.04;100.00
5595;BME280;1003;48.002;7.788;2024-02-23T09:41:43;97441.72;;;9.05;100.00
5595;BME280;1003;48.002;7.788;2024-02-23T09:44:11;97444.91;;;9.09;100.00
5595;BME280;1003;48.002;7.788;2024-02-23T09:46:41;97451.41;;;9.14;100.00
5595;BME280;1003;48.002;7.788;2024-02-23T09:49:12;97452.75;;;9.25;100.00
5595;BME280;1003;48.002;7.788;2024-02-23T09:51:40;97455.31;;;9.23;100.00
5595;BME280;1003;48.002;7.788;2024-02-23T09:54:07;97456.72;;;9.32;100.00
5595;BME280;1003;48.002;7.788;2024-02-23T09:56:35;97451.50;;;9.38;100.00
5595;BME280;1003;48.002;7.788;2024-02-23T09:59:03;97457.78;;;9.50;100.00
5595;BME280;1003;48.002;7.788;2024-02-23T10:01:32;97471.44;;;9.41;100.00
5595;BME280;1003;48.002;7.788;2024-02-23T10:04:01;97472.13;;;9.46;100.00
5595;BME280;1003;48.002;7.788;2024-02-23T10:06:31;97467.06;;;9.48;100.00
5595;BME280;1003;48.002;7.788;2024-02-23T10:08:58;97483.28;;;9.62;100.00
5595;BME280;1003;48.002;7.788;2024-02-23T10:11:25;97476.41;;;9.67;100.00
5595;BME280;1003;48.002;7.788;2024-02-23T10:13:52;97478.84;;;9.70;100.00
5595;BME280;1003;48.002;7.788;2024-02-23T10:16:19;97478.47;;;9.81;100.00
5595;BME280;1003;48.002;7.788;2024-02-23T10:18:47;97471.41;;;9.67;100.00
5595;BME280;1003;48.002;7.788;2024-02-23T10:21:15;97476.88;;;9.79;100.00
5595;BME280;1003;48.002;7.788;2024-02-23T10:23:44;97478.81;;;9.95;100.00
5595;BME280;1003;48.002;7.788;2024-02-23T10:26:11;97475.81;;;10.09;100.00
5595;BME280;1003;48.002;7.788;2024-02-23T10:28:38;97474.81;;;10.13;100.00
5595;BME280;1003;48.002;7.788;2024-02-23T10:31:06;97478.50;;;10.28;100.00
5595;BME280;1003;48.002;7.788;2024-02-23T10:33:34;97474.97;;;10.34;100.00
5595;BME280;1003;48.002;7.788;2024-02-23T10:36:05;97487.63;;;10.31;100.00
5595;BME280;1003;48.002;7.788;2024-02-23T10:38:37;97481.88;;;10.27;100.00
5595;BME280;1003;48.002;7.788;2024-02-23T10:41:07;97487.59;;;10.07;100.00
5595;BME280;1003;48.002;7.788;2024-02-23T10:43:44;97482.88;;;10.21;100.00
5595;BME280;1003;48.002;7.788;2024-02-23T10:46:12;97489.75;;;10.41;100.00
5595;BME280;1003;48.002;7.788;2024-02-23T10:48:40;97495.47;;;10.45;100.00
5595;BME280;1003;48.002;7.788;2024-02-23T10:51:08;97491.22;;;10.91;100.00
5595;BME280;1003;48.002;7.788;2024-02-23T10:53:39;97501.03;;;11.39;100.00
5595;BME280;1003;48.002;7.788;2024-02-23T10:56:08;97522.94;;;11.37;100.00
5595;BME280;1003;48.002;7.788;2024-02-23T10:58:36;97511.63;;;11.47;100.00
5595;BME280;1003;48.002;7.788;2024-02-23T11:01:07;97525.69;;;11.51;100.00
5595;BME280;1003;48.002;7.788;2024-02-23T11:03:38;97520.28;;;11.61;100.00
5595;BME280;1003;48.002;7.788;2024-02-23T11:06:06;97529.53;;;11.60;100.00
5595;BME280;1003;48.002;7.788;2024-02-23T11:08:34;97526.06;;;11.85;100.00
5595;BME280;1003;48.002;7.788;2024-02-23T11:11:09;97515.28;;;12.01;100.00
5595;BME280;1003;48.002;7.788;2024-02-23T11:13:38;97516.44;;;12.13;100.00
5595;BME280;1003;48.002;7.788;2024-02-23T11:16:07;97519.94;;;11.90;100.00
5595;BME280;1003;48.002;7.788;2024-02-23T11:18:35;97533.75;;;11.80;100.00
5595;BME280;1003;48.002;7.788;2024-02-23T11:21:04;97531.88;;;11.65;100.00
5595;BME280;1003;48.002;7.788;2024-02-23T11:23:40;97532.81;;;11.42;100.00
5595;BME280;1003;48.002;7.788;2024-02-23T11:26:12;97529.91;;;11.51;100.00
5595;BME280;1003;48.002;7.788;2024-02-23T11:28:43;97530.03;;;11.48;100.00
5595;BME280;1003;48.002;7.788;2024-02-23T11:31:14;97530.09;;;11.67;100.00
5595;BME280;1003;48.002;7.788;2024-02-23T11:33:48;97528.28;;;11.70;100.00
5595;BME280;1003;48.002;7.788;2024-02-23T11:36:22;97521.03;;;11.42;100.00
5595;BME280;1003;48.002;7.788;2024-02-23T11:38:53;97504.78;;;11.29;100.00
5595;BME280;1003;48.002;7.788;2024-02-23T11:41:23;97516.91;;;11.82;100.00
5595;BME280;1003;48.002;7.788;2024-02-23T11:43:51;97523.59;;;12.41;100.00
5595;BME280;1003;48.002;7.788;2024-02-23T11:46:19;97524.00;;;12.88;100.00
5595;BME280;1003;48.002;7.788;2024-02-23T11:48:46;97540.13;;;12.84;100.00
5595;BME280;1003;48.002;7.788;2024-02-23T11:51:19;97542.00;;;12.81;100.00
5595;BME280;1003;48.002;7.788;2024-02-23T11:53:47;97542.38;;;12.91;100.00
5595;BME280;1003;48.002;7.788;2024-02-23T11:56:14;97545.06;;;12.87;100.00
5595;BME280;1003;48.002;7.788;2024-02-23T11:58:43;97561.59;;;12.93;100.00
5595;BME280;1003;48.002;7.788;2024-02-23T12:01:10;97557.50;;;13.09;100.00
5595;BME280;1003;48.002;7.788;2024-02-23T12:03:37;97555.31;;;13.02;100.00
5595;BME280;1003;48.002;7.788;2024-02-23T12:06:06;97550.81;;;13.08;100.00
5595;BME280;1003;48.002;7.788;2024-02-23T12:08:35;97534.84;;;13.27;100.00
5595;BME280;1003;48.002;7.788;2024-02-23T12:11:05;97528.16;;;13.26;100.00
5595;BME280;1003;48.002;7.788;2024-02-23T12:13:34;97518.66;;;12.95;100.00
5595;BME280;1003;48.002;7.788;2024-02-23T12:16:03;97512.06;;;12.92;100.00
5595;BME280;1003;48.002;7.788;2024-02-23T12:18:33;97518.00;;;12.72;100.00
5595;BME280;1003;48.002;7.788;2024-02-23T12:21:00;97499.09;;;13.00;100.00
5595;BME280;1003;48.002;7.788;2024-02-23T12:23:39;97483.53;;;13.09;100.00
5595;BME280;1003;48.002;7.788;2024-02-23T12:26:06;97487.28;;;13.54;100.00
5595;BME280;1003;48.002;7.788;2024-02-23T12:28:34;97491.09;;;13.61;100.00
5595;BME280;1003;48.002;7.788;2024-02-23T12:31:03;97511.91;;;13.66;100.00
5595;BME280;1003;48.002;7.788;2024-02-23T12:33:32;97516.53;;;13.41;100.00
5595;BME280;1003;48.002;7.788;2024-02-23T12:36:01;97522.13;;;13.28;100.00
5595;BME280;1003;48.002;7.788;2024-02-23T12:38:28;97516.22;;;13.29;100.00
5595;BME280;1003;48.002;7.788;2024-02-23T12:40:55;97512.78;;;13.82;100.00
5595;BME280;1003;48.002;7.788;2024-02-23T12:43:23;97516.50;;;14.08;100.00
5595;BME280;1003;48.002;7.788;2024-02-23T12:45:50;97539.66;;;13.31;100.00
5595;BME280;1003;48.002;7.788;2024-02-23T12:48:19;97539.63;;;13.14;100.00
5595;BME280;1003;48.002;7.788;2024-02-23T12:50:47;97526.50;;;12.70;100.00
5595;BME280;1003;48.002;7.788;2024-02-23T12:53:32;97508.94;;;12.68;100.00
5595;BME280;1003;48.002;7.788;2024-02-23T12:56:01;97496.09;;;12.55;100.00
5595;BME280;1003;48.002;7.788;2024-02-23T12:58:28;97509.78;;;12.12;100.00
5595;BME280;1003;48.002;7.788;2024-02-23T13:00:56;97518.06;;;12.14;100.00
5595;BME280;1003;48.002;7.788;2024-02-23T13:03:25;97504.13;;;12.07;100.00
5595;BME280;1003;48.002;7.788;2024-02-23T13:05:53;97501.97;;;11.98;100.00
5595;BME280;1003;48.002;7.788;2024-02-23T13:08:21;97498.91;;;11.91;100.00
5595;BME280;1003;48.002;7.788;2024-02-23T13:10:48;97491.84;;;11.99;100.00
5595;BME280;1003;48.002;7.788;2024-02-23T13:13:15;97504.19;;;12.05;100.00
5595;BME280;1003;48.002;7.788;2024-02-23T13:15:42;97498.81;;;12.13;100.00
5595;BME280;1003;48.002;7.788;2024-02-23T13:18:10;97487.53;;;12.59;100.00
5595;BME280;1003;48.002;7.788;2024-02-23T13:20:39;97499.19;;;12.79;100.00
5595;BME280;1003;48.002;7.788;2024-02-23T13:23:07;97490.53;;;12.85;100.00
5595;BME280;1003;48.002;7.788;2024-02-23T13:25:35;97496.25;;;12.88;100.00